Terminal Aerodrome Forecast
Issued by NWS

Home | Current Version | Previous Version | Text Only | Print | Product List | Glossary On
Versions: 1 2 3 4 5 6 7 8 9 10 11 12 13 14 15 16
000
FTUS45 KRIW 021720
TAFCPR
TAF
KCPR 021720Z 0218/0318 05006KT P6SM FEW050 SCT120
     FM022000 05010KT P6SM VCTS SCT060CB BKN120
     FM030200 06012KT P6SM SCT030 BKN050
     FM031000 07006KT P6SM SCT030=

USA.gov is the U.S. government's official web portal to all federal, state and local government web resources and services.